Time;durP1;ratioP1;P1;durP2;ratioP2;P2;SDS_P1;SDS_P2;PMS_P1;PMS_P2;Temp;Humidity;BMP_temperature;BMP_pressure;BME280_temperature;BME280_humidity;BME280_pressure;Samples;Min_cycle;Max_cycle;Signal;HPM_P1;HPM_P2
2022/04/29 00:00:25;;;;;;;;;;;;;;;16.07;56.20;102892.78;1027958;28;706;-66
2022/04/29 00:01:15;;;;;;;;;;;;;;;16.06;56.49;102892.88;1029620;28;682;-66
2022/04/29 00:02:06;;;;;;;;;;;;;;;16.06;56.46;102885.66;1029495;28;685;-66
2022/04/29 00:02:56;;;;;;;;;;;;;;;16.06;56.04;102888.34;1029484;28;629;-66
2022/04/29 00:03:47;;;;;;;;;;;;;;;16.05;56.01;102886.63;1027862;28;646;-66
2022/04/29 00:04:37;;;;;;;;;;;;;;;16.05;55.86;102881.25;1027979;28;691;-65
2022/04/29 00:05:27;;;;;;;;;;;;;;;16.06;56.25;102882.13;1027818;28;623;-65
2022/04/29 00:06:18;;;;;;;;;;;;;;;16.04;56.30;102882.19;1027976;28;674;-65
2022/04/29 00:07:09;;;;;;;;;;;;;;;16.05;56.05;102883.94;1027948;28;674;-65
2022/04/29 00:07:59;;;;;;;;;;;;;;;16.04;56.06;102878.63;1027820;28;639;-65
2022/04/29 00:08:50;;;;;;;;;;;;;;;16.04;56.10;102878.63;1029563;28;615;-64
2022/04/29 00:09:40;;;;;;;;;;;;;;;16.04;56.17;102884.00;1027751;28;1726;-65
2022/04/29 00:10:30;;;;;;;;;;;;;;;16.03;56.13;102877.75;1025014;28;627;-65
2022/04/29 00:11:21;;;;;;;;;;;;;;;16.04;55.94;102873.25;1025062;28;721;-65
2022/04/29 00:12:12;;;;;;;;;;;;;;;16.03;56.02;102874.22;1027251;28;1958;-65
2022/04/29 00:13:02;;;;;;;;;;;;;;;16.01;55.92;102882.34;1033561;28;595;-64
2022/04/29 00:13:53;;;;;;;;;;;;;;;16.01;55.93;102866.22;1031318;28;655;-64
2022/04/29 00:14:43;;;;;;;;;;;;;;;16.03;56.01;102868.81;1028076;28;654;-64
2022/04/29 00:15:34;;;;;;;;;;;;;;;16.01;55.86;102871.59;1027074;28;687;-64
2022/04/29 00:16:26;;;;;;;;;;;;;;;16.00;55.90;102861.78;1033401;28;630;-64
2022/04/29 00:17:17;;;;;;;;;;;;;;;16.00;56.10;102869.88;1031249;28;627;-63
2022/04/29 00:18:07;;;;;;;;;;;;;;;16.00;55.91;102859.09;1031533;28;830;-66
2022/04/29 00:18:58;;;;;;;;;;;;;;;15.97;56.04;102859.28;1028000;28;640;-65
2022/04/29 00:19:48;;;;;;;;;;;;;;;15.98;55.86;102871.75;1027594;28;707;-65
2022/04/29 00:20:39;;;;;;;;;;;;;;;15.97;56.06;102867.34;1031658;28;622;-65
2022/04/29 00:21:29;;;;;;;;;;;;;;;15.96;56.04;102868.28;1031413;28;664;-65
2022/04/29 00:22:21;;;;;;;;;;;;;;;15.95;56.02;102867.41;1031090;28;635;-64
2022/04/29 00:23:12;;;;;;;;;;;;;;;15.94;56.25;102868.38;1032212;28;650;-64
2022/04/29 00:24:02;;;;;;;;;;;;;;;15.95;55.79;102870.09;1033423;28;708;-64
2022/04/29 00:24:52;;;;;;;;;;;;;;;15.95;55.98;102869.25;1031058;28;643;-64
2022/04/29 00:25:43;;;;;;;;;;;;;;;15.94;55.92;102871.06;1028070;28;643;-64
2022/04/29 00:26:33;;;;;;;;;;;;;;;15.94;55.86;102875.59;1027279;28;608;-63
2022/04/29 00:27:24;;;;;;;;;;;;;;;15.92;56.06;102870.31;1031169;28;616;-63
2022/04/29 00:28:14;;;;;;;;;;;;;;;15.95;55.77;102880.00;1031888;28;639;-63
2022/04/29 00:29:05;;;;;;;;;;;;;;;15.96;55.83;102868.28;1031169;28;607;-63
2022/04/29 00:29:55;;;;;;;;;;;;;;;15.96;56.06;102868.28;1028055;28;718;-64
2022/04/29 00:30:46;;;;;;;;;;;;;;;15.95;55.64;102869.25;1027911;28;775;-63
2022/04/29 00:31:36;;;;;;;;;;;;;;;15.94;55.73;102864.84;1033381;28;647;-63
2022/04/29 00:32:27;;;;;;;;;;;;;;;15.95;55.88;102866.56;1032273;28;615;-63
2022/04/29 00:33:17;;;;;;;;;;;;;;;15.92;55.85;102873.00;1031348;28;725;-63
2022/04/29 00:34:07;;;;;;;;;;;;;;;15.94;55.78;102870.22;1031048;28;702;-63
2022/04/29 00:34:58;;;;;;;;;;;;;;;15.93;55.85;102876.56;1028545;28;647;-63
2022/04/29 00:35:48;;;;;;;;;;;;;;;15.93;55.80;102873.88;1028074;28;663;-63
2022/04/29 00:36:39;;;;;;;;;;;;;;;15.94;55.79;102867.53;1033398;28;681;-63
2022/04/29 00:37:30;;;;;;;;;;;;;;;15.93;55.93;102869.34;1031373;28;596;-63
2022/04/29 00:38:20;;;;;;;;;;;;;;;15.93;55.66;102863.09;1033461;28;674;-62
2022/04/29 00:39:11;;;;;;;;;;;;;;;15.92;55.78;102862.25;1031150;28;615;-63
2022/04/29 00:40:01;;;;;;;;;;;;;;;15.90;55.83;102855.22;1031408;28;643;-63
2022/04/29 00:40:52;;;;;;;;;;;;;;;15.90;56.00;102853.38;1032404;28;631;-64
2022/04/29 00:41:44;;;;;;;;;;;;;;;15.91;55.78;102860.50;1031365;28;690;-62
2022/04/29 00:42:35;;;;;;;;;;;;;;;15.91;55.80;102855.13;1031281;28;635;-63
2022/04/29 00:43:25;;;;;;;;;;;;;;;15.90;55.69;102852.50;1032321;28;712;-62
2022/04/29 00:44:16;;;;;;;;;;;;;;;15.88;55.67;102857.09;1030679;28;627;-62
2022/04/29 00:45:07;;;;;;;;;;;;;;;15.88;55.92;102844.53;1029110;28;659;-62
2022/04/29 00:45:57;;;;;;;;;;;;;;;15.89;55.82;102848.97;1028147;28;642;-63
2022/04/29 00:46:49;;;;;;;;;;;;;;;15.88;55.91;102854.41;1032425;28;580;-63
2022/04/29 00:47:39;;;;;;;;;;;;;;;15.87;55.92;102848.16;1029898;28;695;-63
2022/04/29 00:48:30;;;;;;;;;;;;;;;15.87;55.78;102848.16;1028687;28;651;-63
2022/04/29 00:49:20;;;;;;;;;;;;;;;15.88;55.85;102851.72;1035807;28;1503;-63
2022/04/29 00:50:11;;;;;;;;;;;;;;;15.88;55.85;102854.41;1036612;28;662;-63
2022/04/29 00:51:01;;;;;;;;;;;;;;;15.86;55.85;102845.56;1037077;28;1503;-63
2022/04/29 00:51:52;;;;;;;;;;;;;;;15.87;55.89;102848.16;1036407;28;1894;-63
2022/04/29 00:52:42;;;;;;;;;;;;;;;15.88;55.77;102847.22;1038835;28;622;-63
2022/04/29 00:53:33;;;;;;;;;;;;;;;15.88;55.79;102849.03;1038767;28;669;-63
2022/04/29 00:54:23;;;;;;;;;;;;;;;15.85;56.01;102844.69;1038703;28;701;-61
2022/04/29 00:55:14;;;;;;;;;;;;;;;15.85;55.71;102833.94;1038674;28;646;-62
2022/04/29 00:56:04;;;;;;;;;;;;;;;15.84;55.56;102840.28;1038783;28;645;-62
2022/04/29 00:56:55;;;;;;;;;;;;;;;15.84;55.49;102844.78;1036459;28;615;-62
2022/04/29 00:57:45;;;;;;;;;;;;;;;15.85;55.81;102841.13;1038722;28;619;-62
2022/04/29 00:58:36;;;;;;;;;;;;;;;15.84;55.75;102836.72;1038346;28;626;-62
2022/04/29 00:59:27;;;;;;;;;;;;;;;15.83;56.07;102840.34;1036395;28;644;-62
2022/04/29 01:00:18;;;;;;;;;;;;;;;15.81;55.97;102848.50;1038712;28;614;-62
2022/04/29 01:01:08;;;;;;;;;;;;;;;15.82;55.55;102838.63;1033207;28;607;-62
2022/04/29 01:01:59;;;;;;;;;;;;;;;15.80;56.08;102841.38;1033169;28;623;-63
2022/04/29 01:02:50;;;;;;;;;;;;;;;15.80;55.82;102840.50;1036675;28;693;-62
2022/04/29 01:03:41;;;;;;;;;;;;;;;15.79;55.97;102836.97;1036403;28;607;-62
2022/04/29 01:04:32;;;;;;;;;;;;;;;15.81;55.69;102844.94;1037634;28;626;-61
2022/04/29 01:05:22;;;;;;;;;;;;;;;15.81;55.61;102831.50;1033168;28;610;-60
2022/04/29 01:06:13;;;;;;;;;;;;;;;15.81;55.68;102837.75;1033674;28;622;-61
2022/04/29 01:07:03;;;;;;;;;;;;;;;15.81;55.59;102834.19;1036407;28;670;-62
2022/04/29 01:07:54;;;;;;;;;;;;;;;15.79;55.83;102833.41;1036394;28;635;-62
2022/04/29 01:08:44;;;;;;;;;;;;;;;15.79;55.93;102833.41;1036599;28;686;-63
2022/04/29 01:09:35;;;;;;;;;;;;;;;15.78;55.96;102837.91;1038754;28;617;-63
2022/04/29 01:10:25;;;;;;;;;;;;;;;15.76;55.86;102828.22;1038694;28;708;-63
2022/04/29 01:11:15;;;;;;;;;;;;;;;15.78;55.63;102826.28;1038841;28;650;-62
2022/04/29 01:12:06;;;;;;;;;;;;;;;15.78;55.79;102823.59;1038534;28;1981;-63
2022/04/29 01:12:56;;;;;;;;;;;;;;;15.78;55.62;102826.28;1038603;28;644;-64
2022/04/29 01:13:47;;;;;;;;;;;;;;;15.78;55.71;102819.09;1036282;28;644;-63
2022/04/29 01:14:37;;;;;;;;;;;;;;;15.76;55.73;102823.72;1036467;28;713;-63
2022/04/29 01:15:28;;;;;;;;;;;;;;;15.76;55.43;102817.47;1038699;28;649;-63
2022/04/29 01:16:18;;;;;;;;;;;;;;;15.76;55.74;102818.34;1038532;28;724;-64
2022/04/29 01:17:09;;;;;;;;;;;;;;;15.76;55.56;102822.84;1038669;28;669;-64
2022/04/29 01:17:59;;;;;;;;;;;;;;;15.76;55.59;102822.84;1038623;28;661;-63
2022/04/29 01:18:49;;;;;;;;;;;;;;;15.76;55.57;102814.78;1038435;28;633;-64
2022/04/29 01:19:40;;;;;;;;;;;;;;;15.75;55.87;102815.72;1038620;28;688;-64
2022/04/29 01:20:30;;;;;;;;;;;;;;;15.75;55.52;102818.41;1036435;28;698;-64
2022/04/29 01:21:21;;;;;;;;;;;;;;;15.74;55.40;102820.25;1036309;28;666;-64
2022/04/29 01:22:11;;;;;;;;;;;;;;;15.75;55.32;102823.78;1038629;28;743;-65
2022/04/29 01:23:01;;;;;;;;;;;;;;;15.73;55.73;102823.00;1038664;28;677;-64
2022/04/29 01:23:52;;;;;;;;;;;;;;;15.72;55.62;102816.75;1036390;28;631;-64
2022/04/29 01:24:42;;;;;;;;;;;;;;;15.72;55.61;102826.66;1038532;28;681;-64
2022/04/29 01:25:33;;;;;;;;;;;;;;;15.72;55.54;102826.66;1038651;28;642;-64
2022/04/29 01:26:23;;;;;;;;;;;;;;;15.72;55.77;102823.97;1038596;28;657;-64
2022/04/29 01:27:13;;;;;;;;;;;;;;;15.71;55.75;102816.84;1036192;28;648;-64
2022/04/29 01:28:04;;;;;;;;;;;;;;;15.71;55.84;102819.53;1036426;28;630;-64
2022/04/29 01:28:54;;;;;;;;;;;;;;;15.72;55.56;102815.91;1036535;28;658;-64
2022/04/29 01:29:45;;;;;;;;;;;;;;;15.70;55.92;102817.78;1038642;28;599;-65
2022/04/29 01:30:36;;;;;;;;;;;;;;;15.69;55.78;102816.94;1038521;28;693;-64
2022/04/29 01:31:27;;;;;;;;;;;;;;;15.70;55.85;102825.84;1036895;28;678;-64
2022/04/29 01:32:17;;;;;;;;;;;;;;;15.71;55.35;102822.22;1036333;28;1901;-63
2022/04/29 01:33:08;;;;;;;;;;;;;;;15.71;55.55;102814.16;1033105;28;627;-64
2022/04/29 01:33:58;;;;;;;;;;;;;;;15.71;55.35;102814.16;1033638;28;701;-63
2022/04/29 01:34:49;;;;;;;;;;;;;;;15.69;55.44;102806.19;1037935;28;690;-63
2022/04/29 01:35:39;;;;;;;;;;;;;;;15.69;55.51;102816.94;1036351;28;658;-64
2022/04/29 01:36:29;;;;;;;;;;;;;;;15.68;55.69;102808.94;1038756;28;613;-65
2022/04/29 01:37:20;;;;;;;;;;;;;;;15.67;55.40;102808.06;1033057;28;678;-64
2022/04/29 01:38:10;;;;;;;;;;;;;;;15.70;55.39;102807.03;1033619;28;881;-64
2022/04/29 01:39:01;;;;;;;;;;;;;;;15.69;55.43;102805.31;1036369;28;658;-64
2022/04/29 01:39:51;;;;;;;;;;;;;;;15.67;55.45;102804.53;1038458;28;626;-64
2022/04/29 01:40:42;;;;;;;;;;;;;;;15.69;55.48;102808.00;1036206;28;664;-63
2022/04/29 01:41:35;;;;;;;;;;;;;;;15.69;55.48;102810.69;1038426;28;617;-63
2022/04/29 01:42:25;;;;;;;;;;;;;;;15.69;55.48;102808.00;1036944;28;709;-63
2022/04/29 01:43:17;;;;;;;;;;;;;;;15.68;55.58;102804.44;1038535;28;614;-64
2022/04/29 01:44:08;;;;;;;;;;;;;;;15.68;55.73;102806.25;1038548;28;641;-63
2022/04/29 01:44:58;;;;;;;;;;;;;;;15.66;55.49;102805.47;1038582;28;770;-63
2022/04/29 01:45:49;;;;;;;;;;;;;;;15.63;55.73;102804.69;1036099;28;678;-63
2022/04/29 01:46:39;;;;;;;;;;;;;;;15.63;55.78;102796.63;1038478;28;654;-63
2022/04/29 01:47:29;;;;;;;;;;;;;;;15.64;55.78;102797.50;1038831;28;626;-64
2022/04/29 01:48:21;;;;;;;;;;;;;;;15.62;55.46;102794.88;1036876;28;618;-64
2022/04/29 01:49:11;;;;;;;;;;;;;;;15.63;55.74;102798.44;1036406;28;646;-64
2022/04/29 01:50:02;;;;;;;;;;;;;;;15.62;55.30;102794.88;1038527;28;673;-64
2022/04/29 01:50:52;;;;;;;;;;;;;;;15.63;55.13;102802.00;1033118;28;1197;-64
2022/04/29 01:51:43;;;;;;;;;;;;;;;15.62;55.64;102794.88;1033127;28;607;-64
2022/04/29 01:52:33;;;;;;;;;;;;;;;15.62;55.30;102794.88;1037170;28;661;-64
2022/04/29 01:53:23;;;;;;;;;;;;;;;15.62;55.35;102797.56;1037392;28;660;-63
2022/04/29 01:54:14;;;;;;;;;;;;;;;15.62;55.33;102800.25;1037294;28;630;-63
2022/04/29 01:55:04;;;;;;;;;;;;;;;15.62;55.63;102794.88;1037322;28;706;-64
2022/04/29 01:55:56;;;;;;;;;;;;;;;15.63;55.50;102802.00;1036127;28;632;-63
2022/04/29 01:56:47;;;;;;;;;;;;;;;15.62;55.74;102800.25;1035156;28;706;-63
2022/04/29 01:57:38;;;;;;;;;;;;;;;15.62;55.71;102796.69;1035634;28;655;-62
2022/04/29 01:58:28;;;;;;;;;;;;;;;15.62;55.54;102800.25;1035946;28;820;-62
2022/04/29 01:59:18;;;;;;;;;;;;;;;15.62;55.52;102799.38;1037154;28;1114;-63
2022/04/29 02:00:10;;;;;;;;;;;;;;;15.59;55.46;102795.03;1037329;28;615;-64
2022/04/29 02:01:01;;;;;;;;;;;;;;;15.59;55.43;102800.41;1037388;28;662;-63
2022/04/29 02:01:51;;;;;;;;;;;;;;;15.58;55.76;102798.72;1037347;28;861;-63
2022/04/29 02:02:41;;;;;;;;;;;;;;;15.58;55.42;102797.84;1037365;28;658;-63
2022/04/29 02:03:32;;;;;;;;;;;;;;;15.58;55.44;102804.09;1037329;28;615;-63
2022/04/29 02:04:22;;;;;;;;;;;;;;;15.58;55.55;102800.53;1037308;28;646;-63
2022/04/29 02:05:13;;;;;;;;;;;;;;;15.57;55.85;102807.72;1037246;28;705;-63
2022/04/29 02:06:04;;;;;;;;;;;;;;;15.57;55.58;102796.09;1037393;28;1065;-63
2022/04/29 02:06:55;;;;;;;;;;;;;;;15.57;55.55;102802.34;1037256;28;602;-63
2022/04/29 02:07:45;;;;;;;;;;;;;;;15.58;55.76;102800.53;1037278;28;567;-63
2022/04/29 02:08:35;;;;;;;;;;;;;;;15.57;55.22;102805.03;1036373;28;648;-63
2022/04/29 02:09:26;;;;;;;;;;;;;;;15.57;55.57;102806.84;1036136;28;631;-63
2022/04/29 02:10:16;;;;;;;;;;;;;;;15.57;55.52;102807.72;1037325;28;673;-63
2022/04/29 02:11:07;;;;;;;;;;;;;;;15.57;55.41;102813.09;1035568;28;659;-63
2022/04/29 02:12:06;;;;;;;;;;;;;;;15.56;55.21;102806.00;1037336;28;1914;-63
2022/04/29 02:12:57;;;;;;;;;;;;;;;15.56;55.33;102806.00;1037250;28;626;-64
2022/04/29 02:13:47;;;;;;;;;;;;;;;15.56;55.38;102811.38;1036294;28;655;-65
2022/04/29 02:14:38;;;;;;;;;;;;;;;15.57;55.38;102813.09;1037326;28;639;-64
2022/04/29 02:15:28;;;;;;;;;;;;;;;15.56;55.35;102810.50;1037373;28;697;-64
2022/04/29 02:16:19;;;;;;;;;;;;;;;15.56;55.36;102813.19;1036027;28;651;-63
2022/04/29 02:17:09;;;;;;;;;;;;;;;15.54;55.44;102810.53;1035755;28;714;-63
2022/04/29 02:18:00;;;;;;;;;;;;;;;15.54;55.65;102810.53;1037239;28;627;-65
2022/04/29 02:18:50;;;;;;;;;;;;;;;15.53;55.59;102805.25;1037497;28;701;-64
2022/04/29 02:19:40;;;;;;;;;;;;;;;15.53;55.30;102816.88;1037246;28;611;-63
2022/04/29 02:20:31;;;;;;;;;;;;;;;15.52;55.63;102812.44;1037254;28;607;-63
2022/04/29 02:21:21;;;;;;;;;;;;;;;15.53;55.37;102808.81;1037266;28;663;-63
2022/04/29 02:22:12;;;;;;;;;;;;;;;15.52;55.38;102804.38;1032940;28;653;-64
2022/04/29 02:23:02;;;;;;;;;;;;;;;15.51;55.14;102805.34;1033511;28;706;-63
2022/04/29 02:23:53;;;;;;;;;;;;;;;15.51;55.33;102808.00;1037294;28;662;-63
2022/04/29 02:24:44;;;;;;;;;;;;;;;15.50;55.40;102805.41;1036279;28;754;-63
2022/04/29 02:25:34;;;;;;;;;;;;;;;15.50;55.37;102806.28;1037286;28;665;-63
2022/04/29 02:26:25;;;;;;;;;;;;;;;15.51;55.25;102807.16;1037240;28;634;-64
2022/04/29 02:27:15;;;;;;;;;;;;;;;15.50;55.19;102806.28;1036084;28;702;-61
2022/04/29 02:28:05;;;;;;;;;;;;;;;15.50;55.55;102803.59;1036233;28;647;-63
2022/04/29 02:28:56;;;;;;;;;;;;;;;15.50;55.51;102814.34;1037198;28;568;-64
2022/04/29 02:29:46;;;;;;;;;;;;;;;15.50;55.33;102808.97;1037234;28;650;-63
2022/04/29 02:30:37;;;;;;;;;;;;;;;15.50;55.52;102800.03;1036113;28;845;-66
2022/04/29 02:31:27;;;;;;;;;;;;;;;15.51;55.36;102808.00;1037432;28;702;-65
2022/04/29 02:32:18;;;;;;;;;;;;;;;15.51;54.96;102804.47;1037120;28;1890;-64
2022/04/29 02:33:08;;;;;;;;;;;;;;;15.50;55.48;102811.66;1032897;28;710;-64
2022/04/29 02:33:58;;;;;;;;;;;;;;;15.51;54.93;102802.66;1032736;28;702;-66
2022/04/29 02:34:49;;;;;;;;;;;;;;;15.51;55.35;102809.84;1037210;28;674;-63
2022/04/29 02:35:39;;;;;;;;;;;;;;;15.48;55.57;102808.19;1032798;28;691;-64
2022/04/29 02:36:31;;;;;;;;;;;;;;;15.49;55.27;102803.69;1031584;28;652;-64
2022/04/29 02:37:21;;;;;;;;;;;;;;;15.49;55.16;102812.59;1037361;28;681;-63
2022/04/29 02:38:11;;;;;;;;;;;;;;;15.49;55.59;102814.41;1037095;28;713;-64
2022/04/29 02:39:03;;;;;;;;;;;;;;;15.47;55.50;102811.81;1037181;28;666;-63
2022/04/29 02:39:53;;;;;;;;;;;;;;;15.47;55.42;102814.50;1035585;28;675;-63
2022/04/29 02:40:44;;;;;;;;;;;;;;;15.47;55.37;102814.50;1037174;28;663;-64
2022/04/29 02:41:35;;;;;;;;;;;;;;;15.47;55.04;102817.19;1037205;28;647;-63
2022/04/29 02:42:25;;;;;;;;;;;;;;;15.45;55.60;102812.84;1035456;28;639;-64
2022/04/29 02:43:16;;;;;;;;;;;;;;;15.43;55.21;102807.56;1037158;28;765;-63
2022/04/29 02:44:06;;;;;;;;;;;;;;;15.43;55.32;102804.00;1036123;28;654;-63
2022/04/29 02:44:57;;;;;;;;;;;;;;;15.41;55.49;102796.00;1037137;28;705;-63
2022/04/29 02:45:47;;;;;;;;;;;;;;;15.42;55.21;102799.56;1036733;28;658;-63
2022/04/29 02:47:47;;;;;;;;;;;;;;;15.41;55.35;102790.63;1037176;28;658;-63
2022/04/29 02:48:37;;;;;;;;;;;;;;;15.43;55.10;102788.75;1037112;28;658;-63
2022/04/29 02:49:28;;;;;;;;;;;;;;;15.43;55.55;102785.19;1032834;28;718;-63
2022/04/29 02:50:18;;;;;;;;;;;;;;;15.42;55.06;102789.69;1033315;28;654;-63
2022/04/29 02:51:09;;;;;;;;;;;;;;;15.41;55.65;102790.63;1031897;28;651;-63
2022/04/29 02:51:59;;;;;;;;;;;;;;;15.42;55.07;102787.00;1032024;28;1961;-64
2022/04/29 02:52:50;;;;;;;;;;;;;;;15.42;55.40;102786.13;1033571;28;875;-63
2022/04/29 02:53:40;;;;;;;;;;;;;;;15.42;55.33;102784.31;1033632;28;642;-63
2022/04/29 02:54:31;;;;;;;;;;;;;;;15.40;55.38;102786.25;1031759;28;600;-64
2022/04/29 02:55:21;;;;;;;;;;;;;;;15.41;55.45;102781.72;1033598;28;642;-63
2022/04/29 02:56:11;;;;;;;;;;;;;;;15.41;55.25;102773.66;1033596;28;729;-63
2022/04/29 02:57:02;;;;;;;;;;;;;;;15.38;55.63;102774.72;1031913;28;796;-63
2022/04/29 02:57:52;;;;;;;;;;;;;;;15.39;55.39;102776.47;1033658;28;705;-64
2022/04/29 02:58:43;;;;;;;;;;;;;;;15.41;55.44;102774.53;1033622;28;643;-63
2022/04/29 02:59:33;;;;;;;;;;;;;;;15.39;55.63;102776.47;1033669;28;654;-63
2022/04/29 03:00:24;;;;;;;;;;;;;;;15.39;55.30;102779.13;1033664;28;646;-63
2022/04/29 03:01:15;;;;;;;;;;;;;;;15.39;55.32;102772.91;1031964;28;671;-63
2022/04/29 03:02:06;;;;;;;;;;;;;;;15.38;55.61;102781.91;1031826;28;631;-64
2022/04/29 03:02:56;;;;;;;;;;;;;;;15.37;55.79;102775.66;1033668;28;619;-65
2022/04/29 03:03:47;;;;;;;;;;;;;;;15.37;55.38;102778.34;1029447;28;768;-63
2022/04/29 03:04:37;;;;;;;;;;;;;;;15.37;55.25;102777.47;1028735;28;638;-63
2022/04/29 03:05:27;;;;;;;;;;;;;;;15.35;55.25;102774.88;1033414;28;665;-63
2022/04/29 03:06:19;;;;;;;;;;;;;;;15.37;54.81;102764.91;1033623;28;658;-63
2022/04/29 03:07:09;;;;;;;;;;;;;;;15.38;55.61;102760.41;1033545;28;706;-63
2022/04/29 03:07:59;;;;;;;;;;;;;;;15.37;55.48;102766.75;1032076;28;687;-63
2022/04/29 03:08:50;;;;;;;;;;;;;;;15.37;55.37;102772.09;1033695;28;649;-63
2022/04/29 03:09:40;;;;;;;;;;;;;;;15.37;55.44;102778.34;1033336;28;670;-64
2022/04/29 03:10:31;;;;;;;;;;;;;;;15.36;55.38;102770.38;1033424;28;633;-63
2022/04/29 03:11:21;;;;;;;;;;;;;;;15.36;55.48;102779.31;1033567;28;665;-63
2022/04/29 03:12:13;;;;;;;;;;;;;;;15.36;55.09;102776.63;1033537;28;1966;-63
2022/04/29 03:13:04;;;;;;;;;;;;;;;15.37;55.60;102782.84;1033619;28;697;-63
2022/04/29 03:13:54;;;;;;;;;;;;;;;15.36;55.19;102782.00;1033584;28;669;-63
2022/04/29 03:14:45;;;;;;;;;;;;;;;15.36;55.18;102782.00;1031789;28;631;-63
2022/04/29 03:15:36;;;;;;;;;;;;;;;15.35;55.46;102777.56;1033476;28;638;-64
2022/04/29 03:16:26;;;;;;;;;;;;;;;15.37;55.08;102782.84;1033619;28;654;-63
2022/04/29 03:18:26;;;;;;;;;;;;;;;15.36;55.11;102771.25;1029181;28;643;-63
2022/04/29 03:19:17;;;;;;;;;;;;;;;15.36;54.95;102776.63;1028816;28;714;-63
2022/04/29 03:20:07;;;;;;;;;;;;;;;15.35;55.42;102774.00;1029748;28;662;-64
2022/04/29 03:20:58;;;;;;;;;;;;;;;15.34;55.48;102773.13;1034207;28;971;-63
2022/04/29 03:21:48;;;;;;;;;;;;;;;15.35;55.49;102779.38;1033519;28;705;-63
2022/04/29 03:22:39;;;;;;;;;;;;;;;15.36;55.46;102776.63;1033763;28;709;-63
2022/04/29 03:23:29;;;;;;;;;;;;;;;15.36;55.36;102773.94;1031828;28;627;-63
2022/04/29 03:24:19;;;;;;;;;;;;;;;15.36;55.47;102786.50;1033589;28;710;-63
2022/04/29 03:25:10;;;;;;;;;;;;;;;15.35;55.58;102776.69;1031799;28;643;-63
2022/04/29 03:26:00;;;;;;;;;;;;;;;15.35;55.19;102782.94;1031917;28;752;-64
2022/04/29 03:26:51;;;;;;;;;;;;;;;15.33;55.08;102773.22;1031810;28;796;-63
2022/04/29 03:27:41;;;;;;;;;;;;;;;15.32;55.17;102775.03;1033564;28;654;-63
2022/04/29 03:28:32;;;;;;;;;;;;;;;15.31;55.15;102776.00;1031721;28;753;-63
2022/04/29 03:29:23;;;;;;;;;;;;;;;15.31;55.34;102773.28;1031908;28;669;-63
2022/04/29 03:30:14;;;;;;;;;;;;;;;15.31;55.06;102776.00;1033497;28;697;-63
2022/04/29 03:31:04;;;;;;;;;;;;;;;15.31;55.23;102773.28;1033549;28;646;-63
2022/04/29 03:31:54;;;;;;;;;;;;;;;15.31;55.22;102770.63;1033485;28;658;-63
2022/04/29 03:32:45;;;;;;;;;;;;;;;15.31;55.32;102770.63;1028666;28;706;-63
2022/04/29 03:33:36;;;;;;;;;;;;;;;15.31;55.23;102778.66;1029212;28;656;-63
2022/04/29 03:34:26;;;;;;;;;;;;;;;15.30;55.42;102776.94;1033362;28;646;-63
2022/04/29 03:35:16;;;;;;;;;;;;;;;15.28;55.38;102768.09;1033524;28;754;-63
2022/04/29 03:36:08;;;;;;;;;;;;;;;15.28;55.13;102770.78;1028602;28;663;-63
2022/04/29 03:36:58;;;;;;;;;;;;;;;15.27;55.17;102769.91;1028633;28;896;-63
2022/04/29 03:37:51;;;;;;;;;;;;;;;15.28;55.02;102770.78;1033496;28;627;-62
2022/04/29 03:38:41;;;;;;;;;;;;;;;15.28;54.89;102762.72;1033568;28;725;-63
2022/04/29 03:39:32;;;;;;;;;;;;;;;15.27;55.11;102772.59;1033557;28;665;-63
2022/04/29 03:40:22;;;;;;;;;;;;;;;15.28;55.37;102758.22;1033455;28;698;-63
2022/04/29 03:41:13;;;;;;;;;;;;;;;15.27;55.01;102760.97;1033613;28;654;-62
2022/04/29 03:42:03;;;;;;;;;;;;;;;15.26;55.60;102767.31;1033493;28;709;-62
2022/04/29 03:42:54;;;;;;;;;;;;;;;15.26;55.09;102769.97;1033562;28;670;-63
2022/04/29 03:43:44;;;;;;;;;;;;;;;15.26;54.98;102776.22;1031874;28;678;-61
2022/04/29 03:44:35;;;;;;;;;;;;;;;15.27;55.22;102761.84;1033530;28;750;-62
2022/04/29 03:45:25;;;;;;;;;;;;;;;15.25;55.61;102763.75;1028613;28;623;-62
2022/04/29 03:46:15;;;;;;;;;;;;;;;15.26;55.49;102764.63;1029205;28;655;-62
2022/04/29 03:47:06;;;;;;;;;;;;;;;15.26;54.98;102756.56;1031928;28;655;-62
2022/04/29 03:47:56;;;;;;;;;;;;;;;15.25;55.47;102754.81;1031941;28;749;-62
2022/04/29 03:49:56;;;;;;;;;;;;;;;15.23;55.41;102759.41;1033521;28;643;-63
2022/04/29 03:50:47;;;;;;;;;;;;;;;15.23;55.28;102754.03;1035654;28;1194;-62
2022/04/29 03:51:38;;;;;;;;;;;;;;;15.24;55.28;102755.75;1035889;28;646;-62
2022/04/29 03:52:28;;;;;;;;;;;;;;;15.23;54.98;102751.34;1035952;28;1894;-62
2022/04/29 03:53:19;;;;;;;;;;;;;;;15.23;55.18;102754.03;1037020;28;678;-63
2022/04/29 03:54:09;;;;;;;;;;;;;;;15.21;55.86;102745.22;1036999;28;623;-63
2022/04/29 03:55:00;;;;;;;;;;;;;;;15.21;55.59;102747.91;1033276;28;646;-63
2022/04/29 03:55:51;;;;;;;;;;;;;;;15.20;55.27;102749.72;1032769;28;704;-63
2022/04/29 03:56:41;;;;;;;;;;;;;;;15.22;54.95;102749.63;1036995;28;670;-63
2022/04/29 03:57:32;;;;;;;;;;;;;;;15.20;55.59;102752.41;1036980;28;618;-63
2022/04/29 03:58:22;;;;;;;;;;;;;;;15.20;55.25;102751.53;1037034;28;642;-64
2022/04/29 03:59:13;;;;;;;;;;;;;;;15.22;55.13;102755.00;1031895;28;1323;-63
2022/04/29 04:00:04;;;;;;;;;;;;;;;15.22;55.22;102755.00;1032584;28;705;-64
2022/04/29 04:00:55;;;;;;;;;;;;;;;15.19;55.25;102758.72;1037037;28;678;-64
2022/04/29 04:01:45;;;;;;;;;;;;;;;15.19;55.15;102752.47;1036976;28;681;-64
2022/04/29 04:02:36;;;;;;;;;;;;;;;15.19;55.36;102758.72;1033212;28;689;-64
2022/04/29 04:03:27;;;;;;;;;;;;;;;15.19;55.64;102747.97;1033204;28;658;-63
2022/04/29 04:04:17;;;;;;;;;;;;;;;15.18;55.61;102750.75;1037016;28;714;-63
2022/04/29 04:05:08;;;;;;;;;;;;;;;15.19;54.75;102747.97;1037023;28;666;-63
2022/04/29 04:07:07;;;;;;;;;;;;;;;15.17;55.18;102741.81;1035990;28;714;-63
2022/04/29 04:08:01;;;;;;;;;;;;;;;15.18;55.22;102750.75;1036995;28;686;-61
2022/04/29 04:08:51;;;;;;;;;;;;;;;15.17;55.09;102744.50;1037650;28;701;-62
2022/04/29 04:09:42;;;;;;;;;;;;;;;15.16;55.18;102750.81;1035714;28;642;-62
2022/04/29 04:10:32;;;;;;;;;;;;;;;15.16;55.23;102758.00;1036983;28;638;-62
2022/04/29 04:11:23;;;;;;;;;;;;;;;15.15;55.31;102751.78;1036964;28;935;-63
2022/04/29 04:12:13;;;;;;;;;;;;;;;15.14;55.01;102755.41;1036862;28;1918;-63
2022/04/29 04:13:04;;;;;;;;;;;;;;;15.14;55.47;102752.72;1037038;28;705;-63
2022/04/29 04:13:54;;;;;;;;;;;;;;;15.15;55.04;102758.97;1036970;28;721;-63
2022/04/29 04:14:45;;;;;;;;;;;;;;;15.16;55.61;102763.38;1036997;28;677;-63
2022/04/29 04:15:35;;;;;;;;;;;;;;;15.14;55.31;102760.78;1035906;28;644;-62
2022/04/29 04:16:26;;;;;;;;;;;;;;;15.13;55.29;102761.72;1036983;28;631;-63
2022/04/29 04:17:16;;;;;;;;;;;;;;;15.14;55.22;102758.09;1036924;28;646;-63
2022/04/29 04:18:07;;;;;;;;;;;;;;;15.16;54.91;102761.56;1035970;28;631;-63
2022/04/29 04:18:57;;;;;;;;;;;;;;;15.14;55.35;102760.78;1035869;28;710;-64
2022/04/29 04:19:48;;;;;;;;;;;;;;;15.15;55.03;102753.59;1035968;28;658;-63
2022/04/29 04:20:38;;;;;;;;;;;;;;;15.15;54.96;102759.84;1032010;28;655;-63
2022/04/29 04:21:28;;;;;;;;;;;;;;;15.14;55.55;102757.22;1033067;28;670;-63
2022/04/29 04:22:19;;;;;;;;;;;;;;;15.14;55.36;102754.53;1038228;28;618;-63
2022/04/29 04:23:09;;;;;;;;;;;;;;;15.13;55.02;102755.50;1037734;28;619;-62
2022/04/29 04:24:00;;;;;;;;;;;;;;;15.11;55.17;102754.69;1037732;28;643;-63
2022/04/29 04:24:50;;;;;;;;;;;;;;;15.11;55.14;102749.31;1037684;28;665;-63
2022/04/29 04:25:40;;;;;;;;;;;;;;;15.11;55.43;102752.00;1036712;28;686;-63
2022/04/29 04:26:31;;;;;;;;;;;;;;;15.12;55.04;102751.94;1037625;28;781;-64
2022/04/29 04:27:23;;;;;;;;;;;;;;;15.12;55.24;102756.44;1032791;28;635;-63
2022/04/29 04:28:13;;;;;;;;;;;;;;;15.11;55.50;102750.19;1033333;28;615;-63
2022/04/29 04:29:04;;;;;;;;;;;;;;;15.12;55.21;102756.44;1037679;28;713;-63
2022/04/29 04:29:54;;;;;;;;;;;;;;;15.11;55.22;102758.25;1037660;28;627;-63
2022/04/29 04:30:45;;;;;;;;;;;;;;;15.11;55.31;102754.69;1037638;28;651;-64